sensor_id;sensor_type;location;lat;lon;timestamp;P1;durP1;ratioP1;P2;durP2;ratioP2
56075;SDS011;41951;49.022;12.066;2023-08-06T00:00:03;13.55;;;11.43;;
56075;SDS011;41951;49.022;12.066;2023-08-06T00:02:30;13.35;;;11.35;;
56075;SDS011;41951;49.022;12.066;2023-08-06T00:04:55;15.60;;;11.68;;
56075;SDS011;41951;49.022;12.066;2023-08-06T00:07:21;14.68;;;11.35;;
56075;SDS011;41951;49.022;12.066;2023-08-06T00:09:46;17.17;;;11.20;;
56075;SDS011;41951;49.022;12.066;2023-08-06T00:12:12;13.57;;;10.75;;
56075;SDS011;41951;49.022;12.066;2023-08-06T00:14:37;15.30;;;11.15;;
56075;SDS011;41951;49.022;12.066;2023-08-06T00:17:03;18.05;;;11.15;;
56075;SDS011;41951;49.022;12.066;2023-08-06T00:19:29;13.38;;;11.25;;
56075;SDS011;41951;49.022;12.066;2023-08-06T00:21:56;13.95;;;10.77;;
56075;SDS011;41951;49.022;12.066;2023-08-06T00:24:21;16.23;;;11.25;;
56075;SDS011;41951;49.022;12.066;2023-08-06T00:26:47;12.98;;;11.30;;
56075;SDS011;41951;49.022;12.066;2023-08-06T00:29:12;14.95;;;11.13;;
56075;SDS011;41951;49.022;12.066;2023-08-06T00:31:38;13.00;;;10.82;;
56075;SDS011;41951;49.022;12.066;2023-08-06T00:34:03;15.52;;;11.05;;
56075;SDS011;41951;49.022;12.066;2023-08-06T00:36:29;13.13;;;10.27;;
56075;SDS011;41951;49.022;12.066;2023-08-06T00:38:54;12.07;;;9.35;;
56075;SDS011;41951;49.022;12.066;2023-08-06T00:41:20;12.85;;;9.15;;
56075;SDS011;41951;49.022;12.066;2023-08-06T00:43:46;11.07;;;8.65;;
56075;SDS011;41951;49.022;12.066;2023-08-06T00:46:12;13.18;;;8.77;;
56075;SDS011;41951;49.022;12.066;2023-08-06T00:48:38;14.15;;;9.02;;
56075;SDS011;41951;49.022;12.066;2023-08-06T00:51:04;11.23;;;9.35;;
56075;SDS011;41951;49.022;12.066;2023-08-06T00:53:30;13.27;;;9.02;;
56075;SDS011;41951;49.022;12.066;2023-08-06T00:55:55;12.98;;;9.90;;
56075;SDS011;41951;49.022;12.066;2023-08-06T00:58:21;13.55;;;10.40;;
56075;SDS011;41951;49.022;12.066;2023-08-06T01:00:47;13.63;;;9.70;;
56075;SDS011;41951;49.022;12.066;2023-08-06T01:03:13;13.77;;;10.85;;
56075;SDS011;41951;49.022;12.066;2023-08-06T01:05:38;13.82;;;9.98;;
56075;SDS011;41951;49.022;12.066;2023-08-06T01:08:28;12.68;;;9.50;;
56075;SDS011;41951;49.022;12.066;2023-08-06T01:14:06;12.57;;;10.60;;
56075;SDS011;41951;49.022;12.066;2023-08-06T01:16:42;14.90;;;10.65;;
56075;SDS011;41951;49.022;12.066;2023-08-06T01:19:18;10.73;;;8.63;;
56075;SDS011;41951;49.022;12.066;2023-08-06T01:21:44;9.32;;;7.35;;
56075;SDS011;41951;49.022;12.066;2023-08-06T01:24:09;8.90;;;7.07;;
56075;SDS011;41951;49.022;12.066;2023-08-06T01:26:37;5.93;;;4.90;;
56075;SDS011;41951;49.022;12.066;2023-08-06T01:29:14;6.03;;;4.55;;
56075;SDS011;41951;49.022;12.066;2023-08-06T01:31:44;5.32;;;3.75;;
56075;SDS011;41951;49.022;12.066;2023-08-06T01:34:23;5.95;;;2.97;;
56075;SDS011;41951;49.022;12.066;2023-08-06T01:36:50;5.10;;;2.75;;
56075;SDS011;41951;49.022;12.066;2023-08-06T01:39:16;4.03;;;2.35;;
56075;SDS011;41951;49.022;12.066;2023-08-06T01:41:45;4.07;;;2.63;;
56075;SDS011;41951;49.022;12.066;2023-08-06T01:44:11;3.20;;;2.00;;
56075;SDS011;41951;49.022;12.066;2023-08-06T01:46:37;4.07;;;2.60;;
56075;SDS011;41951;49.022;12.066;2023-08-06T01:49:03;3.50;;;2.20;;
56075;SDS011;41951;49.022;12.066;2023-08-06T01:51:28;4.00;;;2.10;;
56075;SDS011;41951;49.022;12.066;2023-08-06T01:53:54;4.28;;;2.05;;
56075;SDS011;41951;49.022;12.066;2023-08-06T01:56:19;4.30;;;2.00;;
56075;SDS011;41951;49.022;12.066;2023-08-06T01:58:45;4.05;;;2.40;;
56075;SDS011;41951;49.022;12.066;2023-08-06T02:01:10;3.00;;;2.00;;
56075;SDS011;41951;49.022;12.066;2023-08-06T02:03:36;4.32;;;2.28;;
56075;SDS011;41951;49.022;12.066;2023-08-06T02:06:01;4.35;;;2.10;;
56075;SDS011;41951;49.022;12.066;2023-08-06T02:08:27;3.70;;;2.00;;
56075;SDS011;41951;49.022;12.066;2023-08-06T02:10:53;4.88;;;2.50;;
56075;SDS011;41951;49.022;12.066;2023-08-06T02:13:19;3.28;;;2.13;;
56075;SDS011;41951;49.022;12.066;2023-08-06T02:15:44;4.22;;;1.88;;
56075;SDS011;41951;49.022;12.066;2023-08-06T02:18:12;4.88;;;2.47;;
56075;SDS011;41951;49.022;12.066;2023-08-06T02:20:39;5.00;;;2.15;;
56075;SDS011;41951;49.022;12.066;2023-08-06T02:23:05;4.90;;;3.08;;
56075;SDS011;41951;49.022;12.066;2023-08-06T02:25:30;5.03;;;3.30;;
56075;SDS011;41951;49.022;12.066;2023-08-06T02:27:56;4.07;;;3.15;;
56075;SDS011;41951;49.022;12.066;2023-08-06T02:30:22;4.90;;;3.10;;
56075;SDS011;41951;49.022;12.066;2023-08-06T02:32:47;6.15;;;2.88;;
56075;SDS011;41951;49.022;12.066;2023-08-06T02:35:13;5.32;;;2.92;;
56075;SDS011;41951;49.022;12.066;2023-08-06T02:37:39;5.97;;;2.83;;
56075;SDS011;41951;49.022;12.066;2023-08-06T02:40:04;4.38;;;2.67;;
56075;SDS011;41951;49.022;12.066;2023-08-06T02:42:30;4.53;;;2.60;;
56075;SDS011;41951;49.022;12.066;2023-08-06T02:44:56;6.50;;;2.92;;
56075;SDS011;41951;49.022;12.066;2023-08-06T02:47:21;7.32;;;3.15;;
56075;SDS011;41951;49.022;12.066;2023-08-06T02:49:47;6.05;;;3.58;;
56075;SDS011;41951;49.022;12.066;2023-08-06T02:52:13;5.38;;;2.85;;
56075;SDS011;41951;49.022;12.066;2023-08-06T02:54:38;4.82;;;3.10;;
56075;SDS011;41951;49.022;12.066;2023-08-06T02:57:05;7.00;;;3.33;;
56075;SDS011;41951;49.022;12.066;2023-08-06T02:59:31;5.05;;;2.83;;
56075;SDS011;41951;49.022;12.066;2023-08-06T03:01:56;4.47;;;2.97;;
56075;SDS011;41951;49.022;12.066;2023-08-06T03:04:22;3.88;;;2.50;;
56075;SDS011;41951;49.022;12.066;2023-08-06T03:06:51;4.13;;;2.42;;
56075;SDS011;41951;49.022;12.066;2023-08-06T03:09:17;3.95;;;2.80;;
56075;SDS011;41951;49.022;12.066;2023-08-06T03:11:43;5.32;;;2.63;;
56075;SDS011;41951;49.022;12.066;2023-08-06T03:14:08;3.72;;;2.58;;
56075;SDS011;41951;49.022;12.066;2023-08-06T03:16:34;4.90;;;2.53;;
56075;SDS011;41951;49.022;12.066;2023-08-06T03:19:00;7.50;;;2.60;;
56075;SDS011;41951;49.022;12.066;2023-08-06T03:21:25;5.47;;;2.75;;
56075;SDS011;41951;49.022;12.066;2023-08-06T03:23:51;5.78;;;3.13;;
56075;SDS011;41951;49.022;12.066;2023-08-06T03:26:17;5.25;;;2.55;;
56075;SDS011;41951;49.022;12.066;2023-08-06T03:28:42;4.43;;;2.70;;
56075;SDS011;41951;49.022;12.066;2023-08-06T03:31:08;4.43;;;2.35;;
56075;SDS011;41951;49.022;12.066;2023-08-06T03:33:34;6.00;;;2.85;;
56075;SDS011;41951;49.022;12.066;2023-08-06T03:35:59;3.85;;;2.60;;
56075;SDS011;41951;49.022;12.066;2023-08-06T03:38:25;4.63;;;2.53;;
56075;SDS011;41951;49.022;12.066;2023-08-06T03:40:51;3.50;;;2.60;;
56075;SDS011;41951;49.022;12.066;2023-08-06T03:43:16;4.63;;;2.50;;
56075;SDS011;41951;49.022;12.066;2023-08-06T03:45:42;4.13;;;2.80;;
56075;SDS011;41951;49.022;12.066;2023-08-06T03:48:08;6.10;;;3.40;;
56075;SDS011;41951;49.022;12.066;2023-08-06T03:50:33;5.15;;;2.58;;
56075;SDS011;41951;49.022;12.066;2023-08-06T03:53:00;7.18;;;3.08;;
56075;SDS011;41951;49.022;12.066;2023-08-06T03:55:25;5.40;;;2.58;;
56075;SDS011;41951;49.022;12.066;2023-08-06T03:57:51;3.53;;;2.55;;
56075;SDS011;41951;49.022;12.066;2023-08-06T04:00:17;4.65;;;2.75;;
56075;SDS011;41951;49.022;12.066;2023-08-06T04:02:43;5.18;;;2.80;;
56075;SDS011;41951;49.022;12.066;2023-08-06T04:05:08;5.65;;;3.00;;
56075;SDS011;41951;49.022;12.066;2023-08-06T04:07:34;6.03;;;2.90;;
56075;SDS011;41951;49.022;12.066;2023-08-06T04:10:00;4.93;;;2.40;;
56075;SDS011;41951;49.022;12.066;2023-08-06T04:12:28;6.57;;;2.80;;
56075;SDS011;41951;49.022;12.066;2023-08-06T04:14:54;5.28;;;2.88;;
56075;SDS011;41951;49.022;12.066;2023-08-06T04:17:20;5.05;;;2.90;;
56075;SDS011;41951;49.022;12.066;2023-08-06T04:19:50;3.72;;;2.90;;
56075;SDS011;41951;49.022;12.066;2023-08-06T04:22:16;6.17;;;3.73;;
56075;SDS011;41951;49.022;12.066;2023-08-06T04:24:42;4.78;;;2.78;;
56075;SDS011;41951;49.022;12.066;2023-08-06T04:27:08;4.97;;;3.42;;
56075;SDS011;41951;49.022;12.066;2023-08-06T04:29:34;4.85;;;2.85;;
56075;SDS011;41951;49.022;12.066;2023-08-06T04:32:00;4.32;;;2.65;;
56075;SDS011;41951;49.022;12.066;2023-08-06T04:34:26;4.72;;;2.72;;
56075;SDS011;41951;49.022;12.066;2023-08-06T04:36:51;3.80;;;2.70;;
56075;SDS011;41951;49.022;12.066;2023-08-06T04:39:17;4.32;;;2.67;;
56075;SDS011;41951;49.022;12.066;2023-08-06T04:41:43;7.22;;;3.03;;
56075;SDS011;41951;49.022;12.066;2023-08-06T04:44:09;4.78;;;2.47;;
56075;SDS011;41951;49.022;12.066;2023-08-06T04:46:34;3.75;;;2.65;;
56075;SDS011;41951;49.022;12.066;2023-08-06T04:49:00;4.35;;;2.67;;
56075;SDS011;41951;49.022;12.066;2023-08-06T04:51:26;4.95;;;2.85;;
56075;SDS011;41951;49.022;12.066;2023-08-06T04:53:51;4.57;;;2.85;;
56075;SDS011;41951;49.022;12.066;2023-08-06T04:56:17;4.15;;;2.72;;
56075;SDS011;41951;49.022;12.066;2023-08-06T04:58:42;3.78;;;2.63;;
56075;SDS011;41951;49.022;12.066;2023-08-06T05:01:08;5.43;;;2.58;;
56075;SDS011;41951;49.022;12.066;2023-08-06T05:03:33;5.15;;;2.28;;
56075;SDS011;41951;49.022;12.066;2023-08-06T05:05:59;5.80;;;2.83;;
56075;SDS011;41951;49.022;12.066;2023-08-06T05:08:25;3.92;;;2.70;;
56075;SDS011;41951;49.022;12.066;2023-08-06T05:10:50;4.22;;;2.70;;
56075;SDS011;41951;49.022;12.066;2023-08-06T05:13:16;4.63;;;2.88;;
56075;SDS011;41951;49.022;12.066;2023-08-06T05:15:42;3.90;;;2.30;;
56075;SDS011;41951;49.022;12.066;2023-08-06T05:18:08;4.22;;;3.08;;
56075;SDS011;41951;49.022;12.066;2023-08-06T05:20:37;3.88;;;2.63;;
56075;SDS011;41951;49.022;12.066;2023-08-06T05:23:03;5.27;;;2.70;;
56075;SDS011;41951;49.022;12.066;2023-08-06T05:25:29;5.90;;;2.63;;
56075;SDS011;41951;49.022;12.066;2023-08-06T05:27:55;4.68;;;2.70;;
56075;SDS011;41951;49.022;12.066;2023-08-06T05:30:20;4.25;;;2.60;;
56075;SDS011;41951;49.022;12.066;2023-08-06T05:32:46;4.10;;;2.60;;
56075;SDS011;41951;49.022;12.066;2023-08-06T05:35:12;3.92;;;2.72;;
56075;SDS011;41951;49.022;12.066;2023-08-06T05:37:37;4.60;;;2.38;;
56075;SDS011;41951;49.022;12.066;2023-08-06T05:40:03;6.22;;;2.75;;
56075;SDS011;41951;49.022;12.066;2023-08-06T05:42:29;3.50;;;2.47;;
56075;SDS011;41951;49.022;12.066;2023-08-06T05:44:55;5.32;;;2.80;;
56075;SDS011;41951;49.022;12.066;2023-08-06T05:47:20;3.45;;;2.65;;
56075;SDS011;41951;49.022;12.066;2023-08-06T05:49:46;4.03;;;2.58;;
56075;SDS011;41951;49.022;12.066;2023-08-06T05:52:11;3.25;;;2.30;;
56075;SDS011;41951;49.022;12.066;2023-08-06T05:54:37;3.40;;;2.10;;
56075;SDS011;41951;49.022;12.066;2023-08-06T05:57:02;3.65;;;2.40;;
56075;SDS011;41951;49.022;12.066;2023-08-06T05:59:28;3.38;;;2.38;;
56075;SDS011;41951;49.022;12.066;2023-08-06T06:01:54;5.20;;;2.40;;
56075;SDS011;41951;49.022;12.066;2023-08-06T06:04:20;6.15;;;2.70;;
56075;SDS011;41951;49.022;12.066;2023-08-06T06:06:45;4.05;;;2.30;;
56075;SDS011;41951;49.022;12.066;2023-08-06T06:09:11;8.07;;;2.42;;
56075;SDS011;41951;49.022;12.066;2023-08-06T06:11:36;4.50;;;2.40;;
56075;SDS011;41951;49.022;12.066;2023-08-06T06:14:02;3.65;;;2.20;;
56075;SDS011;41951;49.022;12.066;2023-08-06T06:16:28;3.58;;;2.20;;
56075;SDS011;41951;49.022;12.066;2023-08-06T06:18:53;4.25;;;2.65;;
56075;SDS011;41951;49.022;12.066;2023-08-06T06:21:19;3.92;;;2.40;;
56075;SDS011;41951;49.022;12.066;2023-08-06T06:23:45;6.15;;;2.20;;
56075;SDS011;41951;49.022;12.066;2023-08-06T06:26:12;4.80;;;2.50;;
56075;SDS011;41951;49.022;12.066;2023-08-06T06:28:37;4.45;;;2.15;;
56075;SDS011;41951;49.022;12.066;2023-08-06T06:31:03;4.32;;;2.40;;
56075;SDS011;41951;49.022;12.066;2023-08-06T06:33:29;4.55;;;2.95;;
56075;SDS011;41951;49.022;12.066;2023-08-06T06:35:54;4.65;;;2.90;;
56075;SDS011;41951;49.022;12.066;2023-08-06T06:38:20;4.45;;;2.90;;
56075;SDS011;41951;49.022;12.066;2023-08-06T06:40:55;5.50;;;2.78;;
56075;SDS011;41951;49.022;12.066;2023-08-06T06:43:21;6.10;;;3.15;;
56075;SDS011;41951;49.022;12.066;2023-08-06T06:45:51;4.60;;;3.58;;
56075;SDS011;41951;49.022;12.066;2023-08-06T06:48:18;7.68;;;3.53;;
56075;SDS011;41951;49.022;12.066;2023-08-06T06:50:46;5.53;;;3.30;;
56075;SDS011;41951;49.022;12.066;2023-08-06T06:53:13;5.20;;;3.00;;
56075;SDS011;41951;49.022;12.066;2023-08-06T06:55:39;5.45;;;3.60;;
56075;SDS011;41951;49.022;12.066;2023-08-06T06:58:04;4.43;;;3.33;;
56075;SDS011;41951;49.022;12.066;2023-08-06T07:00:30;6.55;;;3.55;;
56075;SDS011;41951;49.022;12.066;2023-08-06T07:02:55;6.18;;;3.97;;
56075;SDS011;41951;49.022;12.066;2023-08-06T07:05:22;11.57;;;4.18;;
56075;SDS011;41951;49.022;12.066;2023-08-06T07:07:47;6.43;;;3.90;;
56075;SDS011;41951;49.022;12.066;2023-08-06T07:10:13;4.03;;;3.42;;
56075;SDS011;41951;49.022;12.066;2023-08-06T07:12:39;6.22;;;3.55;;
56075;SDS011;41951;49.022;12.066;2023-08-06T07:15:05;5.18;;;3.35;;
56075;SDS011;41951;49.022;12.066;2023-08-06T07:17:31;5.72;;;3.50;;
56075;SDS011;41951;49.022;12.066;2023-08-06T07:19:57;5.22;;;3.50;;
56075;SDS011;41951;49.022;12.066;2023-08-06T07:22:23;4.78;;;2.72;;
56075;SDS011;41951;49.022;12.066;2023-08-06T07:24:48;4.95;;;2.90;;
56075;SDS011;41951;49.022;12.066;2023-08-06T07:27:14;3.83;;;2.70;;
56075;SDS011;41951;49.022;12.066;2023-08-06T07:29:39;4.65;;;2.90;;
56075;SDS011;41951;49.022;12.066;2023-08-06T07:32:06;4.72;;;2.78;;
56075;SDS011;41951;49.022;12.066;2023-08-06T07:34:32;10.25;;;5.63;;
56075;SDS011;41951;49.022;12.066;2023-08-06T07:36:58;6.47;;;2.60;;
56075;SDS011;41951;49.022;12.066;2023-08-06T07:39:23;4.80;;;2.42;;
56075;SDS011;41951;49.022;12.066;2023-08-06T07:41:49;4.18;;;2.78;;
56075;SDS011;41951;49.022;12.066;2023-08-06T07:44:15;4.65;;;2.17;;
56075;SDS011;41951;49.022;12.066;2023-08-06T07:46:40;7.60;;;2.20;;
56075;SDS011;41951;49.022;12.066;2023-08-06T07:49:06;5.57;;;2.20;;
56075;SDS011;41951;49.022;12.066;2023-08-06T07:51:32;6.32;;;2.47;;
56075;SDS011;41951;49.022;12.066;2023-08-06T07:53:57;6.88;;;2.58;;
56075;SDS011;41951;49.022;12.066;2023-08-06T07:56:23;3.78;;;1.90;;
56075;SDS011;41951;49.022;12.066;2023-08-06T07:58:48;3.58;;;1.60;;
56075;SDS011;41951;49.022;12.066;2023-08-06T08:01:14;5.50;;;2.10;;
56075;SDS011;41951;49.022;12.066;2023-08-06T08:03:39;6.32;;;2.22;;
56075;SDS011;41951;49.022;12.066;2023-08-06T08:06:05;4.95;;;2.00;;
56075;SDS011;41951;49.022;12.066;2023-08-06T08:08:31;4.13;;;1.65;;
56075;SDS011;41951;49.022;12.066;2023-08-06T08:10:56;5.20;;;2.15;;
56075;SDS011;41951;49.022;12.066;2023-08-06T08:13:24;4.90;;;1.90;;
56075;SDS011;41951;49.022;12.066;2023-08-06T08:15:49;6.38;;;3.38;;
56075;SDS011;41951;49.022;12.066;2023-08-06T08:18:15;3.88;;;1.60;;
56075;SDS011;41951;49.022;12.066;2023-08-06T08:20:40;2.90;;;1.65;;
56075;SDS011;41951;49.022;12.066;2023-08-06T08:23:06;4.38;;;1.88;;
56075;SDS011;41951;49.022;12.066;2023-08-06T08:25:31;2.90;;;1.92;;
56075;SDS011;41951;49.022;12.066;2023-08-06T08:27:59;3.10;;;1.80;;
56075;SDS011;41951;49.022;12.066;2023-08-06T08:30:24;2.70;;;1.60;;
56075;SDS011;41951;49.022;12.066;2023-08-06T08:32:50;4.15;;;2.33;;
56075;SDS011;41951;49.022;12.066;2023-08-06T08:35:15;6.60;;;2.13;;
56075;SDS011;41951;49.022;12.066;2023-08-06T08:37:42;4.40;;;2.00;;
56075;SDS011;41951;49.022;12.066;2023-08-06T08:40:08;14.05;;;8.98;;
56075;SDS011;41951;49.022;12.066;2023-08-06T08:42:34;5.30;;;2.70;;
56075;SDS011;41951;49.022;12.066;2023-08-06T08:45:01;4.47;;;1.90;;
56075;SDS011;41951;49.022;12.066;2023-08-06T08:47:29;5.25;;;2.17;;
56075;SDS011;41951;49.022;12.066;2023-08-06T08:49:56;3.83;;;1.90;;
56075;SDS011;41951;49.022;12.066;2023-08-06T08:52:22;4.53;;;2.88;;
56075;SDS011;41951;49.022;12.066;2023-08-06T08:54:50;3.47;;;1.60;;
56075;SDS011;41951;49.022;12.066;2023-08-06T08:57:18;3.38;;;1.77;;
56075;SDS011;41951;49.022;12.066;2023-08-06T08:59:43;2.95;;;1.80;;
56075;SDS011;41951;49.022;12.066;2023-08-06T09:02:10;2.83;;;1.60;;
56075;SDS011;41951;49.022;12.066;2023-08-06T09:04:37;3.80;;;1.65;;
56075;SDS011;41951;49.022;12.066;2023-08-06T09:07:05;2.72;;;1.50;;
56075;SDS011;41951;49.022;12.066;2023-08-06T09:09:33;5.30;;;1.65;;
56075;SDS011;41951;49.022;12.066;2023-08-06T09:12:02;3.67;;;1.70;;
56075;SDS011;41951;49.022;12.066;2023-08-06T09:14:37;3.70;;;2.08;;
56075;SDS011;41951;49.022;12.066;2023-08-06T09:17:03;6.20;;;3.80;;
56075;SDS011;41951;49.022;12.066;2023-08-06T09:19:29;3.10;;;1.83;;
56075;SDS011;41951;49.022;12.066;2023-08-06T09:21:55;3.90;;;1.80;;
56075;SDS011;41951;49.022;12.066;2023-08-06T09:24:21;2.25;;;1.20;;
56075;SDS011;41951;49.022;12.066;2023-08-06T09:26:47;3.55;;;1.20;;
56075;SDS011;41951;49.022;12.066;2023-08-06T09:29:13;2.70;;;1.10;;
56075;SDS011;41951;49.022;12.066;2023-08-06T09:31:49;2.70;;;1.30;;
56075;SDS011;41951;49.022;12.066;2023-08-06T09:34:19;2.10;;;1.10;;
56075;SDS011;41951;49.022;12.066;2023-08-06T09:36:53;2.95;;;1.10;;
56075;SDS011;41951;49.022;12.066;2023-08-06T09:39:20;3.53;;;1.23;;
56075;SDS011;41951;49.022;12.066;2023-08-06T09:41:47;1.67;;;1.10;;
56075;SDS011;41951;49.022;12.066;2023-08-06T09:44:19;1.52;;;1.00;;
56075;SDS011;41951;49.022;12.066;2023-08-06T09:46:48;1.98;;;1.00;;
56075;SDS011;41951;49.022;12.066;2023-08-06T09:49:18;3.03;;;1.30;;
56075;SDS011;41951;49.022;12.066;2023-08-06T09:54:15;1.95;;;1.02;;
56075;SDS011;41951;49.022;12.066;2023-08-06T09:56:42;2.05;;;1.08;;
56075;SDS011;41951;49.022;12.066;2023-08-06T09:59:08;1.40;;;0.90;;
56075;SDS011;41951;49.022;12.066;2023-08-06T10:01:36;4.18;;;1.10;;
56075;SDS011;41951;49.022;12.066;2023-08-06T10:04:02;2.72;;;1.00;;
56075;SDS011;41951;49.022;12.066;2023-08-06T10:06:29;1.33;;;0.80;;
56075;SDS011;41951;49.022;12.066;2023-08-06T10:08:58;1.98;;;0.80;;
56075;SDS011;41951;49.022;12.066;2023-08-06T10:11:24;1.27;;;0.90;;
56075;SDS011;41951;49.022;12.066;2023-08-06T10:13:53;2.67;;;1.10;;
56075;SDS011;41951;49.022;12.066;2023-08-06T10:18:49;1.33;;;1.00;;
56075;SDS011;41951;49.022;12.066;2023-08-06T10:21:15;5.70;;;1.45;;
56075;SDS011;41951;49.022;12.066;2023-08-06T10:23:41;3.83;;;1.50;;
56075;SDS011;41951;49.022;12.066;2023-08-06T10:26:07;3.97;;;1.58;;
56075;SDS011;41951;49.022;12.066;2023-08-06T10:28:39;2.90;;;1.30;;
56075;SDS011;41951;49.022;12.066;2023-08-06T10:31:05;4.53;;;1.40;;
56075;SDS011;41951;49.022;12.066;2023-08-06T10:33:44;4.88;;;1.40;;
56075;SDS011;41951;49.022;12.066;2023-08-06T10:36:11;1.55;;;0.52;;
56075;SDS011;41951;49.022;12.066;2023-08-06T10:38:44;2.10;;;1.20;;
56075;SDS011;41951;49.022;12.066;2023-08-06T10:41:15;4.07;;;1.10;;
56075;SDS011;41951;49.022;12.066;2023-08-06T10:46:10;2.15;;;1.13;;
56075;SDS011;41951;49.022;12.066;2023-08-06T10:48:44;3.80;;;0.80;;
56075;SDS011;41951;49.022;12.066;2023-08-06T10:51:11;3.60;;;1.30;;
56075;SDS011;41951;49.022;12.066;2023-08-06T10:53:38;4.00;;;2.45;;
56075;SDS011;41951;49.022;12.066;2023-08-06T10:58:54;1.13;;;0.80;;
56075;SDS011;41951;49.022;12.066;2023-08-06T11:01:24;1.63;;;0.80;;
56075;SDS011;41951;49.022;12.066;2023-08-06T11:03:53;1.30;;;0.82;;
56075;SDS011;41951;49.022;12.066;2023-08-06T11:06:20;5.18;;;0.90;;
56075;SDS011;41951;49.022;12.066;2023-08-06T11:08:47;1.65;;;0.70;;
56075;SDS011;41951;49.022;12.066;2023-08-06T11:11:16;2.55;;;0.90;;
56075;SDS011;41951;49.022;12.066;2023-08-06T11:13:50;2.05;;;0.90;;
56075;SDS011;41951;49.022;12.066;2023-08-06T11:16:19;1.85;;;0.80;;
56075;SDS011;41951;49.022;12.066;2023-08-06T11:18:49;3.22;;;0.80;;
56075;SDS011;41951;49.022;12.066;2023-08-06T11:21:18;1.45;;;0.77;;
56075;SDS011;41951;49.022;12.066;2023-08-06T11:23:44;1.83;;;0.82;;
56075;SDS011;41951;49.022;12.066;2023-08-06T11:26:10;2.75;;;0.73;;
56075;SDS011;41951;49.022;12.066;2023-08-06T11:28:35;1.90;;;0.77;;
56075;SDS011;41951;49.022;12.066;2023-08-06T11:31:01;1.30;;;0.60;;
56075;SDS011;41951;49.022;12.066;2023-08-06T11:33:28;1.17;;;0.60;;
56075;SDS011;41951;49.022;12.066;2023-08-06T11:35:55;1.70;;;0.65;;
56075;SDS011;41951;49.022;12.066;2023-08-06T11:38:21;0.82;;;0.52;;
56075;SDS011;41951;49.022;12.066;2023-08-06T11:40:50;1.95;;;1.17;;
56075;SDS011;41951;49.022;12.066;2023-08-06T11:43:16;1.55;;;0.80;;
56075;SDS011;41951;49.022;12.066;2023-08-06T11:45:49;0.93;;;0.70;;
56075;SDS011;41951;49.022;12.066;2023-08-06T11:48:16;1.65;;;0.50;;
56075;SDS011;41951;49.022;12.066;2023-08-06T11:50:41;0.50;;;0.30;;
56075;SDS011;41951;49.022;12.066;2023-08-06T11:53:07;0.88;;;0.43;;
56075;SDS011;41951;49.022;12.066;2023-08-06T11:55:38;1.15;;;0.63;;
56075;SDS011;41951;49.022;12.066;2023-08-06T11:58:03;0.50;;;0.50;;
56075;SDS011;41951;49.022;12.066;2023-08-06T12:00:30;0.75;;;0.50;;
56075;SDS011;41951;49.022;12.066;2023-08-06T12:02:55;1.60;;;0.98;;
56075;SDS011;41951;49.022;12.066;2023-08-06T12:05:22;1.60;;;0.63;;
56075;SDS011;41951;49.022;12.066;2023-08-06T12:07:52;0.90;;;0.60;;
56075;SDS011;41951;49.022;12.066;2023-08-06T12:10:20;0.88;;;0.70;;
56075;SDS011;41951;49.022;12.066;2023-08-06T12:12:46;0.43;;;0.43;;
56075;SDS011;41951;49.022;12.066;2023-08-06T12:15:12;0.52;;;0.47;;
56075;SDS011;41951;49.022;12.066;2023-08-06T12:17:38;0.88;;;0.52;;
56075;SDS011;41951;49.022;12.066;2023-08-06T12:20:04;0.47;;;0.38;;
56075;SDS011;41951;49.022;12.066;2023-08-06T12:22:31;0.95;;;0.40;;
56075;SDS011;41951;49.022;12.066;2023-08-06T12:25:00;0.60;;;0.52;;
56075;SDS011;41951;49.022;12.066;2023-08-06T12:27:27;1.35;;;0.88;;
56075;SDS011;41951;49.022;12.066;2023-08-06T12:29:53;1.13;;;0.50;;
56075;SDS011;41951;49.022;12.066;2023-08-06T12:32:19;1.25;;;0.88;;
56075;SDS011;41951;49.022;12.066;2023-08-06T12:34:44;1.33;;;0.55;;
56075;SDS011;41951;49.022;12.066;2023-08-06T12:37:10;1.02;;;0.60;;
56075;SDS011;41951;49.022;12.066;2023-08-06T12:39:36;0.35;;;0.30;;
56075;SDS011;41951;49.022;12.066;2023-08-06T12:42:02;1.05;;;0.50;;
56075;SDS011;41951;49.022;12.066;2023-08-06T12:44:29;0.60;;;0.50;;
56075;SDS011;41951;49.022;12.066;2023-08-06T12:46:55;2.67;;;0.52;;
56075;SDS011;41951;49.022;12.066;2023-08-06T12:49:21;2.95;;;0.70;;
56075;SDS011;41951;49.022;12.066;2023-08-06T12:51:47;0.88;;;0.50;;
56075;SDS011;41951;49.022;12.066;2023-08-06T12:54:13;1.17;;;0.60;;
56075;SDS011;41951;49.022;12.066;2023-08-06T12:56:39;0.82;;;0.40;;
56075;SDS011;41951;49.022;12.066;2023-08-06T12:59:04;1.25;;;0.40;;
56075;SDS011;41951;49.022;12.066;2023-08-06T13:01:30;0.95;;;0.32;;
56075;SDS011;41951;49.022;12.066;2023-08-06T13:03:56;2.08;;;0.63;;
56075;SDS011;41951;49.022;12.066;2023-08-06T13:06:21;8.52;;;6.82;;
56075;SDS011;41951;49.022;12.066;2023-08-06T13:08:47;1.80;;;0.85;;
56075;SDS011;41951;49.022;12.066;2023-08-06T13:11:12;1.05;;;0.50;;
56075;SDS011;41951;49.022;12.066;2023-08-06T13:13:38;1.00;;;0.40;;
56075;SDS011;41951;49.022;12.066;2023-08-06T13:16:03;2.78;;;0.50;;
56075;SDS011;41951;49.022;12.066;2023-08-06T13:18:29;0.50;;;0.50;;
56075;SDS011;41951;49.022;12.066;2023-08-06T13:20:56;0.63;;;0.30;;
56075;SDS011;41951;49.022;12.066;2023-08-06T13:23:21;0.75;;;0.30;;
56075;SDS011;41951;49.022;12.066;2023-08-06T13:25:47;1.67;;;0.40;;
56075;SDS011;41951;49.022;12.066;2023-08-06T13:28:12;0.52;;;0.30;;
56075;SDS011;41951;49.022;12.066;2023-08-06T13:30:39;1.08;;;0.40;;
56075;SDS011;41951;49.022;12.066;2023-08-06T13:33:10;0.65;;;0.22;;
56075;SDS011;41951;49.022;12.066;2023-08-06T13:35:36;0.30;;;0.30;;
56075;SDS011;41951;49.022;12.066;2023-08-06T13:38:02;0.50;;;0.30;;
56075;SDS011;41951;49.022;12.066;2023-08-06T13:40:28;0.45;;;0.38;;
56075;SDS011;41951;49.022;12.066;2023-08-06T13:42:55;0.30;;;0.30;;
56075;SDS011;41951;49.022;12.066;2023-08-06T13:45:21;0.38;;;0.30;;
56075;SDS011;41951;49.022;12.066;2023-08-06T13:47:46;0.52;;;0.35;;
56075;SDS011;41951;49.022;12.066;2023-08-06T13:50:12;0.98;;;0.60;;
56075;SDS011;41951;49.022;12.066;2023-08-06T13:52:38;2.75;;;1.63;;
56075;SDS011;41951;49.022;12.066;2023-08-06T13:55:04;1.63;;;0.68;;
56075;SDS011;41951;49.022;12.066;2023-08-06T13:57:30;0.73;;;0.40;;
56075;SDS011;41951;49.022;12.066;2023-08-06T13:59:56;0.20;;;0.20;;
56075;SDS011;41951;49.022;12.066;2023-08-06T14:02:22;0.50;;;0.50;;
56075;SDS011;41951;49.022;12.066;2023-08-06T14:04:48;2.20;;;1.20;;
56075;SDS011;41951;49.022;12.066;2023-08-06T14:07:13;1.00;;;0.30;;
56075;SDS011;41951;49.022;12.066;2023-08-06T14:09:39;0.82;;;0.30;;
56075;SDS011;41951;49.022;12.066;2023-08-06T14:12:05;0.40;;;0.30;;
56075;SDS011;41951;49.022;12.066;2023-08-06T14:14:31;0.20;;;0.20;;
56075;SDS011;41951;49.022;12.066;2023-08-06T14:16:57;0.30;;;0.30;;
56075;SDS011;41951;49.022;12.066;2023-08-06T14:19:22;0.38;;;0.30;;
56075;SDS011;41951;49.022;12.066;2023-08-06T14:21:48;0.63;;;0.40;;
56075;SDS011;41951;49.022;12.066;2023-08-06T14:24:14;0.25;;;0.25;;
56075;SDS011;41951;49.022;12.066;2023-08-06T14:26:40;0.30;;;0.30;;
56075;SDS011;41951;49.022;12.066;2023-08-06T14:29:05;1.02;;;0.40;;
56075;SDS011;41951;49.022;12.066;2023-08-06T14:31:31;0.40;;;0.40;;
56075;SDS011;41951;49.022;12.066;2023-08-06T14:33:57;3.28;;;0.60;;
56075;SDS011;41951;49.022;12.066;2023-08-06T14:36:22;0.30;;;0.20;;
56075;SDS011;41951;49.022;12.066;2023-08-06T14:38:48;0.38;;;0.38;;
56075;SDS011;41951;49.022;12.066;2023-08-06T14:41:14;0.50;;;0.40;;